sensor_id;sensor_type;location;lat;lon;timestamp;P1;durP1;ratioP1;P2;durP2;ratioP2
20449;SDS011;10384;51.940;8.432;2023-04-23T00:02:08;20.23;;;10.70;;
20449;SDS011;10384;51.940;8.432;2023-04-23T00:04:37;22.43;;;10.50;;
20449;SDS011;10384;51.940;8.432;2023-04-23T00:07:03;24.47;;;11.13;;
20449;SDS011;10384;51.940;8.432;2023-04-23T00:09:31;24.37;;;11.03;;
20449;SDS011;10384;51.940;8.432;2023-04-23T00:12:00;24.23;;;11.50;;
20449;SDS011;10384;51.940;8.432;2023-04-23T00:14:26;24.60;;;11.27;;
20449;SDS011;10384;51.940;8.432;2023-04-23T00:16:52;23.83;;;11.57;;
20449;SDS011;10384;51.940;8.432;2023-04-23T00:19:18;28.03;;;11.97;;
20449;SDS011;10384;51.940;8.432;2023-04-23T00:21:45;24.17;;;11.47;;
20449;SDS011;10384;51.940;8.432;2023-04-23T00:24:10;28.40;;;13.33;;
20449;SDS011;10384;51.940;8.432;2023-04-23T00:26:36;25.87;;;11.50;;
20449;SDS011;10384;51.940;8.432;2023-04-23T00:29:02;27.13;;;12.37;;
20449;SDS011;10384;51.940;8.432;2023-04-23T00:31:29;30.50;;;12.97;;
20449;SDS011;10384;51.940;8.432;2023-04-23T00:33:54;31.13;;;12.83;;
20449;SDS011;10384;51.940;8.432;2023-04-23T00:36:21;27.20;;;12.77;;
20449;SDS011;10384;51.940;8.432;2023-04-23T00:38:47;29.97;;;12.93;;
20449;SDS011;10384;51.940;8.432;2023-04-23T00:41:13;29.80;;;13.63;;
20449;SDS011;10384;51.940;8.432;2023-04-23T00:43:39;28.87;;;12.90;;
20449;SDS011;10384;51.940;8.432;2023-04-23T00:46:05;27.87;;;13.40;;
20449;SDS011;10384;51.940;8.432;2023-04-23T00:48:32;29.23;;;13.10;;
20449;SDS011;10384;51.940;8.432;2023-04-23T00:51:01;28.87;;;12.33;;
20449;SDS011;10384;51.940;8.432;2023-04-23T00:53:27;29.67;;;13.10;;
20449;SDS011;10384;51.940;8.432;2023-04-23T00:55:53;28.53;;;12.23;;
20449;SDS011;10384;51.940;8.432;2023-04-23T00:58:19;29.10;;;13.27;;
20449;SDS011;10384;51.940;8.432;2023-04-23T01:00:45;31.93;;;13.93;;
20449;SDS011;10384;51.940;8.432;2023-04-23T01:03:13;27.10;;;12.57;;
20449;SDS011;10384;51.940;8.432;2023-04-23T01:05:42;30.00;;;12.80;;
20449;SDS011;10384;51.940;8.432;2023-04-23T01:08:12;31.17;;;13.63;;
20449;SDS011;10384;51.940;8.432;2023-04-23T01:10:39;30.70;;;13.83;;
20449;SDS011;10384;51.940;8.432;2023-04-23T01:13:05;29.03;;;13.50;;
20449;SDS011;10384;51.940;8.432;2023-04-23T01:15:31;28.57;;;13.37;;
20449;SDS011;10384;51.940;8.432;2023-04-23T01:17:57;33.03;;;14.07;;
20449;SDS011;10384;51.940;8.432;2023-04-23T01:20:23;33.43;;;13.80;;
20449;SDS011;10384;51.940;8.432;2023-04-23T01:22:49;31.53;;;13.37;;
20449;SDS011;10384;51.940;8.432;2023-04-23T01:25:15;32.80;;;14.03;;
20449;SDS011;10384;51.940;8.432;2023-04-23T01:27:41;33.40;;;14.13;;
20449;SDS011;10384;51.940;8.432;2023-04-23T01:30:08;33.70;;;14.97;;
20449;SDS011;10384;51.940;8.432;2023-04-23T01:32:34;31.63;;;13.40;;
20449;SDS011;10384;51.940;8.432;2023-04-23T01:35:00;30.70;;;13.77;;
20449;SDS011;10384;51.940;8.432;2023-04-23T01:37:27;31.20;;;13.70;;
20449;SDS011;10384;51.940;8.432;2023-04-23T01:39:53;31.03;;;14.20;;
20449;SDS011;10384;51.940;8.432;2023-04-23T01:42:20;32.63;;;13.90;;
20449;SDS011;10384;51.940;8.432;2023-04-23T01:44:47;35.53;;;14.53;;
20449;SDS011;10384;51.940;8.432;2023-04-23T01:47:13;34.40;;;14.70;;
20449;SDS011;10384;51.940;8.432;2023-04-23T01:49:39;35.80;;;14.77;;
20449;SDS011;10384;51.940;8.432;2023-04-23T01:52:05;41.57;;;16.30;;
20449;SDS011;10384;51.940;8.432;2023-04-23T01:54:31;35.53;;;14.57;;
20449;SDS011;10384;51.940;8.432;2023-04-23T01:56:57;35.10;;;14.40;;
20449;SDS011;10384;51.940;8.432;2023-04-23T01:59:24;36.73;;;14.43;;
20449;SDS011;10384;51.940;8.432;2023-04-23T02:01:50;38.27;;;14.97;;
20449;SDS011;10384;51.940;8.432;2023-04-23T02:04:16;32.00;;;13.93;;
20449;SDS011;10384;51.940;8.432;2023-04-23T02:06:43;35.57;;;14.20;;
20449;SDS011;10384;51.940;8.432;2023-04-23T02:09:10;34.80;;;13.37;;
20449;SDS011;10384;51.940;8.432;2023-04-23T02:11:36;33.83;;;14.80;;
20449;SDS011;10384;51.940;8.432;2023-04-23T02:14:02;40.30;;;14.93;;
20449;SDS011;10384;51.940;8.432;2023-04-23T02:16:28;38.13;;;14.40;;
20449;SDS011;10384;51.940;8.432;2023-04-23T02:18:54;34.23;;;13.47;;
20449;SDS011;10384;51.940;8.432;2023-04-23T02:21:24;32.70;;;14.57;;
20449;SDS011;10384;51.940;8.432;2023-04-23T02:23:51;40.80;;;15.47;;
20449;SDS011;10384;51.940;8.432;2023-04-23T02:26:17;35.83;;;14.57;;
20449;SDS011;10384;51.940;8.432;2023-04-23T02:28:44;37.80;;;14.40;;
20449;SDS011;10384;51.940;8.432;2023-04-23T02:31:10;31.30;;;13.50;;
20449;SDS011;10384;51.940;8.432;2023-04-23T02:33:36;39.57;;;15.83;;
20449;SDS011;10384;51.940;8.432;2023-04-23T02:36:02;36.83;;;14.53;;
20449;SDS011;10384;51.940;8.432;2023-04-23T02:38:28;36.13;;;14.50;;
20449;SDS011;10384;51.940;8.432;2023-04-23T02:40:54;33.57;;;13.90;;
20449;SDS011;10384;51.940;8.432;2023-04-23T02:43:20;36.20;;;14.40;;
20449;SDS011;10384;51.940;8.432;2023-04-23T02:45:46;36.07;;;14.30;;
20449;SDS011;10384;51.940;8.432;2023-04-23T02:48:12;39.70;;;15.87;;
20449;SDS011;10384;51.940;8.432;2023-04-23T02:50:37;39.30;;;14.80;;
20449;SDS011;10384;51.940;8.432;2023-04-23T02:53:04;41.43;;;14.87;;
20449;SDS011;10384;51.940;8.432;2023-04-23T02:55:30;38.33;;;15.03;;
20449;SDS011;10384;51.940;8.432;2023-04-23T02:57:56;42.23;;;16.13;;
20449;SDS011;10384;51.940;8.432;2023-04-23T03:00:22;39.33;;;14.93;;
20449;SDS011;10384;51.940;8.432;2023-04-23T03:02:48;43.30;;;15.57;;
20449;SDS011;10384;51.940;8.432;2023-04-23T03:05:14;38.50;;;15.47;;
20449;SDS011;10384;51.940;8.432;2023-04-23T03:07:40;43.17;;;16.37;;
20449;SDS011;10384;51.940;8.432;2023-04-23T03:10:07;41.63;;;15.57;;
20449;SDS011;10384;51.940;8.432;2023-04-23T03:12:33;38.47;;;15.47;;
20449;SDS011;10384;51.940;8.432;2023-04-23T03:14:59;37.17;;;14.73;;
20449;SDS011;10384;51.940;8.432;2023-04-23T03:17:25;42.83;;;16.23;;
20449;SDS011;10384;51.940;8.432;2023-04-23T03:19:51;37.90;;;15.43;;
20449;SDS011;10384;51.940;8.432;2023-04-23T03:22:17;42.77;;;15.90;;
20449;SDS011;10384;51.940;8.432;2023-04-23T03:24:43;43.67;;;16.03;;
20449;SDS011;10384;51.940;8.432;2023-04-23T03:27:09;39.73;;;14.97;;
20449;SDS011;10384;51.940;8.432;2023-04-23T03:29:35;43.17;;;15.83;;
20449;SDS011;10384;51.940;8.432;2023-04-23T03:32:01;39.40;;;14.20;;
20449;SDS011;10384;51.940;8.432;2023-04-23T03:34:28;41.43;;;15.20;;
20449;SDS011;10384;51.940;8.432;2023-04-23T03:36:54;40.70;;;15.97;;
20449;SDS011;10384;51.940;8.432;2023-04-23T03:39:20;38.83;;;15.23;;
20449;SDS011;10384;51.940;8.432;2023-04-23T03:41:46;44.17;;;16.00;;
20449;SDS011;10384;51.940;8.432;2023-04-23T03:44:12;40.87;;;15.83;;
20449;SDS011;10384;51.940;8.432;2023-04-23T03:46:38;42.60;;;16.83;;
20449;SDS011;10384;51.940;8.432;2023-04-23T03:49:04;39.67;;;15.80;;
20449;SDS011;10384;51.940;8.432;2023-04-23T03:51:30;42.37;;;15.97;;
20449;SDS011;10384;51.940;8.432;2023-04-23T03:53:56;42.37;;;16.93;;
20449;SDS011;10384;51.940;8.432;2023-04-23T03:56:22;41.63;;;16.03;;
20449;SDS011;10384;51.940;8.432;2023-04-23T03:58:48;45.60;;;16.40;;
20449;SDS011;10384;51.940;8.432;2023-04-23T04:01:14;40.40;;;15.33;;
20449;SDS011;10384;51.940;8.432;2023-04-23T04:03:40;40.70;;;14.90;;
20449;SDS011;10384;51.940;8.432;2023-04-23T04:06:06;50.07;;;18.03;;
20449;SDS011;10384;51.940;8.432;2023-04-23T04:08:32;43.13;;;15.50;;
20449;SDS011;10384;51.940;8.432;2023-04-23T04:10:58;41.33;;;15.67;;
20449;SDS011;10384;51.940;8.432;2023-04-23T04:13:25;45.23;;;17.47;;
20449;SDS011;10384;51.940;8.432;2023-04-23T04:15:51;42.40;;;15.37;;
20449;SDS011;10384;51.940;8.432;2023-04-23T04:18:17;39.90;;;14.60;;
20449;SDS011;10384;51.940;8.432;2023-04-23T04:20:43;46.27;;;16.70;;
20449;SDS011;10384;51.940;8.432;2023-04-23T04:23:09;43.03;;;16.27;;
20449;SDS011;10384;51.940;8.432;2023-04-23T04:25:35;43.90;;;15.93;;
20449;SDS011;10384;51.940;8.432;2023-04-23T04:28:04;46.43;;;16.03;;
20449;SDS011;10384;51.940;8.432;2023-04-23T04:30:31;43.70;;;16.03;;
20449;SDS011;10384;51.940;8.432;2023-04-23T04:32:58;44.13;;;16.10;;
20449;SDS011;10384;51.940;8.432;2023-04-23T04:35:25;43.20;;;16.63;;
20449;SDS011;10384;51.940;8.432;2023-04-23T04:37:51;41.37;;;15.73;;
20449;SDS011;10384;51.940;8.432;2023-04-23T04:40:18;51.03;;;17.00;;
20449;SDS011;10384;51.940;8.432;2023-04-23T04:42:44;46.23;;;15.90;;
20449;SDS011;10384;51.940;8.432;2023-04-23T04:45:10;50.40;;;16.97;;
20449;SDS011;10384;51.940;8.432;2023-04-23T04:47:36;46.03;;;17.30;;
20449;SDS011;10384;51.940;8.432;2023-04-23T04:50:05;52.00;;;18.53;;
20449;SDS011;10384;51.940;8.432;2023-04-23T04:52:32;50.53;;;17.43;;
20449;SDS011;10384;51.940;8.432;2023-04-23T04:54:57;41.70;;;15.97;;
20449;SDS011;10384;51.940;8.432;2023-04-23T04:57:23;51.40;;;16.73;;
20449;SDS011;10384;51.940;8.432;2023-04-23T04:59:49;50.30;;;18.37;;
20449;SDS011;10384;51.940;8.432;2023-04-23T05:02:15;46.63;;;16.93;;
20449;SDS011;10384;51.940;8.432;2023-04-23T05:04:42;48.27;;;16.97;;
20449;SDS011;10384;51.940;8.432;2023-04-23T05:07:07;48.20;;;16.20;;
20449;SDS011;10384;51.940;8.432;2023-04-23T05:09:33;48.50;;;17.80;;
20449;SDS011;10384;51.940;8.432;2023-04-23T05:11:59;54.60;;;19.60;;
20449;SDS011;10384;51.940;8.432;2023-04-23T05:14:26;49.10;;;17.33;;
20449;SDS011;10384;51.940;8.432;2023-04-23T05:16:52;51.50;;;18.33;;
20449;SDS011;10384;51.940;8.432;2023-04-23T05:19:18;53.43;;;18.90;;
20449;SDS011;10384;51.940;8.432;2023-04-23T05:21:44;46.30;;;16.97;;
20449;SDS011;10384;51.940;8.432;2023-04-23T05:24:10;50.03;;;17.60;;
20449;SDS011;10384;51.940;8.432;2023-04-23T05:26:36;57.90;;;18.90;;
20449;SDS011;10384;51.940;8.432;2023-04-23T05:29:02;55.80;;;17.63;;
20449;SDS011;10384;51.940;8.432;2023-04-23T05:31:28;48.33;;;17.27;;
20449;SDS011;10384;51.940;8.432;2023-04-23T05:33:55;48.63;;;17.23;;
20449;SDS011;10384;51.940;8.432;2023-04-23T05:36:21;51.07;;;18.10;;
20449;SDS011;10384;51.940;8.432;2023-04-23T05:38:47;58.37;;;19.00;;
20449;SDS011;10384;51.940;8.432;2023-04-23T05:41:13;51.87;;;17.70;;
20449;SDS011;10384;51.940;8.432;2023-04-23T05:43:39;52.37;;;18.70;;
20449;SDS011;10384;51.940;8.432;2023-04-23T05:46:05;56.07;;;19.63;;
20449;SDS011;10384;51.940;8.432;2023-04-23T05:48:32;50.73;;;18.03;;
20449;SDS011;10384;51.940;8.432;2023-04-23T05:50:58;55.93;;;19.07;;
20449;SDS011;10384;51.940;8.432;2023-04-23T05:53:24;52.97;;;18.37;;
20449;SDS011;10384;51.940;8.432;2023-04-23T05:55:50;56.83;;;19.30;;
20449;SDS011;10384;51.940;8.432;2023-04-23T05:58:16;54.43;;;18.27;;
20449;SDS011;10384;51.940;8.432;2023-04-23T06:00:43;55.20;;;18.20;;
20449;SDS011;10384;51.940;8.432;2023-04-23T06:03:09;55.33;;;18.60;;
20449;SDS011;10384;51.940;8.432;2023-04-23T06:05:35;57.13;;;19.37;;
20449;SDS011;10384;51.940;8.432;2023-04-23T06:08:02;52.70;;;18.57;;
20449;SDS011;10384;51.940;8.432;2023-04-23T06:10:28;60.00;;;19.50;;
20449;SDS011;10384;51.940;8.432;2023-04-23T06:12:54;59.80;;;19.37;;
20449;SDS011;10384;51.940;8.432;2023-04-23T06:15:20;55.87;;;19.97;;
20449;SDS011;10384;51.940;8.432;2023-04-23T06:17:50;53.33;;;18.40;;
20449;SDS011;10384;51.940;8.432;2023-04-23T06:20:18;60.13;;;19.53;;
20449;SDS011;10384;51.940;8.432;2023-04-23T06:22:44;54.23;;;19.27;;
20449;SDS011;10384;51.940;8.432;2023-04-23T06:25:10;50.67;;;18.47;;
20449;SDS011;10384;51.940;8.432;2023-04-23T06:27:36;52.40;;;18.73;;
20449;SDS011;10384;51.940;8.432;2023-04-23T06:30:02;52.90;;;19.63;;
20449;SDS011;10384;51.940;8.432;2023-04-23T06:32:28;54.93;;;19.47;;
20449;SDS011;10384;51.940;8.432;2023-04-23T06:34:54;53.87;;;20.53;;
20449;SDS011;10384;51.940;8.432;2023-04-23T06:37:20;52.47;;;18.07;;
20449;SDS011;10384;51.940;8.432;2023-04-23T06:39:47;53.43;;;19.37;;
20449;SDS011;10384;51.940;8.432;2023-04-23T06:42:13;55.33;;;18.97;;
20449;SDS011;10384;51.940;8.432;2023-04-23T06:44:39;58.17;;;20.47;;
20449;SDS011;10384;51.940;8.432;2023-04-23T06:47:05;48.33;;;16.87;;
20449;SDS011;10384;51.940;8.432;2023-04-23T06:49:31;49.83;;;18.40;;
20449;SDS011;10384;51.940;8.432;2023-04-23T06:51:57;49.40;;;18.87;;
20449;SDS011;10384;51.940;8.432;2023-04-23T06:54:23;46.17;;;17.73;;
20449;SDS011;10384;51.940;8.432;2023-04-23T06:56:50;45.47;;;17.37;;
20449;SDS011;10384;51.940;8.432;2023-04-23T06:59:16;45.63;;;17.67;;
20449;SDS011;10384;51.940;8.432;2023-04-23T07:01:43;52.13;;;20.23;;
20449;SDS011;10384;51.940;8.432;2023-04-23T07:04:09;50.60;;;17.17;;
20449;SDS011;10384;51.940;8.432;2023-04-23T07:06:35;37.67;;;16.03;;
20449;SDS011;10384;51.940;8.432;2023-04-23T07:09:01;43.30;;;16.87;;
20449;SDS011;10384;51.940;8.432;2023-04-23T07:11:27;39.27;;;15.87;;
20449;SDS011;10384;51.940;8.432;2023-04-23T07:13:55;43.03;;;16.10;;
20449;SDS011;10384;51.940;8.432;2023-04-23T07:16:21;45.17;;;15.90;;
20449;SDS011;10384;51.940;8.432;2023-04-23T07:18:49;40.93;;;16.37;;
20449;SDS011;10384;51.940;8.432;2023-04-23T07:21:15;44.43;;;16.30;;
20449;SDS011;10384;51.940;8.432;2023-04-23T07:23:41;37.33;;;14.63;;
20449;SDS011;10384;51.940;8.432;2023-04-23T07:26:07;37.27;;;15.07;;
20449;SDS011;10384;51.940;8.432;2023-04-23T07:28:33;40.87;;;15.83;;
20449;SDS011;10384;51.940;8.432;2023-04-23T07:31:00;38.23;;;14.47;;
20449;SDS011;10384;51.940;8.432;2023-04-23T07:33:26;40.80;;;13.97;;
20449;SDS011;10384;51.940;8.432;2023-04-23T07:35:53;40.20;;;14.40;;
20449;SDS011;10384;51.940;8.432;2023-04-23T07:38:19;33.50;;;13.70;;
20449;SDS011;10384;51.940;8.432;2023-04-23T07:40:45;33.63;;;13.07;;
20449;SDS011;10384;51.940;8.432;2023-04-23T07:43:11;33.53;;;12.67;;
20449;SDS011;10384;51.940;8.432;2023-04-23T07:45:38;32.33;;;12.87;;
20449;SDS011;10384;51.940;8.432;2023-04-23T07:48:04;32.53;;;13.00;;
20449;SDS011;10384;51.940;8.432;2023-04-23T07:50:30;31.50;;;12.33;;
20449;SDS011;10384;51.940;8.432;2023-04-23T07:52:56;30.53;;;12.47;;
20449;SDS011;10384;51.940;8.432;2023-04-23T07:55:22;33.53;;;13.47;;
20449;SDS011;10384;51.940;8.432;2023-04-23T07:57:48;26.03;;;11.00;;
20449;SDS011;10384;51.940;8.432;2023-04-23T08:00:14;29.83;;;12.33;;
20449;SDS011;10384;51.940;8.432;2023-04-23T08:02:40;26.97;;;11.57;;
20449;SDS011;10384;51.940;8.432;2023-04-23T08:05:06;29.50;;;11.60;;
20449;SDS011;10384;51.940;8.432;2023-04-23T08:07:33;29.70;;;12.40;;
20449;SDS011;10384;51.940;8.432;2023-04-23T08:09:59;25.57;;;10.80;;
20449;SDS011;10384;51.940;8.432;2023-04-23T08:12:28;23.40;;;10.10;;
20449;SDS011;10384;51.940;8.432;2023-04-23T08:14:54;23.47;;;10.10;;
20449;SDS011;10384;51.940;8.432;2023-04-23T08:17:20;17.27;;;9.30;;
20449;SDS011;10384;51.940;8.432;2023-04-23T08:19:46;16.80;;;8.00;;
20449;SDS011;10384;51.940;8.432;2023-04-23T08:22:12;16.23;;;8.10;;
20449;SDS011;10384;51.940;8.432;2023-04-23T08:24:40;16.47;;;8.40;;
20449;SDS011;10384;51.940;8.432;2023-04-23T08:27:06;15.93;;;7.70;;
20449;SDS011;10384;51.940;8.432;2023-04-23T08:29:32;18.20;;;8.20;;
20449;SDS011;10384;51.940;8.432;2023-04-23T08:31:59;12.83;;;6.77;;
20449;SDS011;10384;51.940;8.432;2023-04-23T08:34:25;15.83;;;7.93;;
20449;SDS011;10384;51.940;8.432;2023-04-23T08:36:51;13.53;;;6.73;;
20449;SDS011;10384;51.940;8.432;2023-04-23T08:39:17;18.97;;;8.00;;
20449;SDS011;10384;51.940;8.432;2023-04-23T08:41:43;16.27;;;8.40;;
20449;SDS011;10384;51.940;8.432;2023-04-23T08:46:35;13.00;;;6.73;;
20449;SDS011;10384;51.940;8.432;2023-04-23T08:49:02;14.60;;;7.60;;
20449;SDS011;10384;51.940;8.432;2023-04-23T08:51:29;12.57;;;6.53;;
20449;SDS011;10384;51.940;8.432;2023-04-23T08:53:57;13.93;;;6.23;;
20449;SDS011;10384;51.940;8.432;2023-04-23T08:56:23;14.77;;;7.00;;
20449;SDS011;10384;51.940;8.432;2023-04-23T08:58:50;11.07;;;5.97;;
20449;SDS011;10384;51.940;8.432;2023-04-23T09:01:16;10.77;;;5.83;;
20449;SDS011;10384;51.940;8.432;2023-04-23T09:03:42;12.07;;;5.47;;
20449;SDS011;10384;51.940;8.432;2023-04-23T09:06:08;8.93;;;5.60;;
20449;SDS011;10384;51.940;8.432;2023-04-23T09:08:34;11.67;;;5.40;;
20449;SDS011;10384;51.940;8.432;2023-04-23T09:11:01;10.90;;;6.03;;
20449;SDS011;10384;51.940;8.432;2023-04-23T09:13:28;11.07;;;5.30;;
20449;SDS011;10384;51.940;8.432;2023-04-23T09:15:55;10.17;;;5.80;;
20449;SDS011;10384;51.940;8.432;2023-04-23T09:18:21;9.77;;;5.60;;
20449;SDS011;10384;51.940;8.432;2023-04-23T09:20:48;10.73;;;5.70;;
20449;SDS011;10384;51.940;8.432;2023-04-23T09:23:15;8.83;;;5.33;;
20449;SDS011;10384;51.940;8.432;2023-04-23T09:25:41;7.63;;;4.70;;
20449;SDS011;10384;51.940;8.432;2023-04-23T09:28:07;9.43;;;4.93;;
20449;SDS011;10384;51.940;8.432;2023-04-23T09:30:38;7.70;;;4.37;;
20449;SDS011;10384;51.940;8.432;2023-04-23T09:33:05;8.33;;;5.00;;
20449;SDS011;10384;51.940;8.432;2023-04-23T09:35:31;7.07;;;4.13;;
20449;SDS011;10384;51.940;8.432;2023-04-23T09:37:59;8.60;;;4.60;;
20449;SDS011;10384;51.940;8.432;2023-04-23T09:40:30;8.90;;;5.27;;
20449;SDS011;10384;51.940;8.432;2023-04-23T09:42:56;7.93;;;4.90;;
20449;SDS011;10384;51.940;8.432;2023-04-23T09:45:22;10.23;;;6.13;;
20449;SDS011;10384;51.940;8.432;2023-04-23T09:50:17;9.07;;;5.37;;
20449;SDS011;10384;51.940;8.432;2023-04-23T09:52:43;8.80;;;4.90;;
20449;SDS011;10384;51.940;8.432;2023-04-23T09:55:10;7.33;;;4.50;;
20449;SDS011;10384;51.940;8.432;2023-04-23T09:57:36;6.23;;;4.20;;
20449;SDS011;10384;51.940;8.432;2023-04-23T10:00:15;6.53;;;4.27;;
20449;SDS011;10384;51.940;8.432;2023-04-23T10:02:49;8.10;;;4.50;;
20449;SDS011;10384;51.940;8.432;2023-04-23T10:05:19;6.73;;;4.07;;
20449;SDS011;10384;51.940;8.432;2023-04-23T10:07:45;7.70;;;4.57;;
20449;SDS011;10384;51.940;8.432;2023-04-23T10:10:13;7.97;;;4.80;;
20449;SDS011;10384;51.940;8.432;2023-04-23T10:12:39;7.20;;;4.63;;
20449;SDS011;10384;51.940;8.432;2023-04-23T10:15:06;7.20;;;4.07;;
20449;SDS011;10384;51.940;8.432;2023-04-23T10:17:33;8.83;;;4.50;;
20449;SDS011;10384;51.940;8.432;2023-04-23T10:20:00;6.60;;;4.93;;
20449;SDS011;10384;51.940;8.432;2023-04-23T10:22:26;8.43;;;5.00;;
20449;SDS011;10384;51.940;8.432;2023-04-23T10:24:54;8.93;;;5.43;;
20449;SDS011;10384;51.940;8.432;2023-04-23T10:27:25;6.83;;;4.40;;
20449;SDS011;10384;51.940;8.432;2023-04-23T10:29:51;5.17;;;4.00;;
20449;SDS011;10384;51.940;8.432;2023-04-23T10:32:18;5.17;;;3.73;;
20449;SDS011;10384;51.940;8.432;2023-04-23T10:34:44;8.77;;;4.03;;
20449;SDS011;10384;51.940;8.432;2023-04-23T10:37:11;7.57;;;4.50;;
20449;SDS011;10384;51.940;8.432;2023-04-23T10:39:39;6.77;;;4.00;;
20449;SDS011;10384;51.940;8.432;2023-04-23T10:42:07;6.37;;;3.63;;
20449;SDS011;10384;51.940;8.432;2023-04-23T10:44:37;4.90;;;3.23;;
20449;SDS011;10384;51.940;8.432;2023-04-23T10:47:04;6.20;;;3.80;;
20449;SDS011;10384;51.940;8.432;2023-04-23T10:49:31;4.70;;;3.33;;
20449;SDS011;10384;51.940;8.432;2023-04-23T10:51:57;5.33;;;3.00;;
20449;SDS011;10384;51.940;8.432;2023-04-23T10:54:27;5.13;;;3.03;;
20449;SDS011;10384;51.940;8.432;2023-04-23T10:56:57;5.03;;;3.20;;
20449;SDS011;10384;51.940;8.432;2023-04-23T10:59:23;5.80;;;3.30;;
20449;SDS011;10384;51.940;8.432;2023-04-23T11:01:49;5.37;;;3.30;;
20449;SDS011;10384;51.940;8.432;2023-04-23T11:04:19;4.37;;;3.30;;
20449;SDS011;10384;51.940;8.432;2023-04-23T11:11:57;4.30;;;3.10;;
20449;SDS011;10384;51.940;8.432;2023-04-23T11:14:33;6.83;;;3.10;;
20449;SDS011;10384;51.940;8.432;2023-04-23T11:17:00;4.27;;;3.50;;
20449;SDS011;10384;51.940;8.432;2023-04-23T11:19:26;4.70;;;3.40;;
20449;SDS011;10384;51.940;8.432;2023-04-23T11:26:54;6.60;;;2.93;;
20449;SDS011;10384;51.940;8.432;2023-04-23T11:29:22;3.00;;;2.47;;
20449;SDS011;10384;51.940;8.432;2023-04-23T11:31:48;3.67;;;2.67;;
20449;SDS011;10384;51.940;8.432;2023-04-23T11:34:15;4.63;;;2.97;;
20449;SDS011;10384;51.940;8.432;2023-04-23T11:36:41;4.90;;;2.40;;
20449;SDS011;10384;51.940;8.432;2023-04-23T11:39:07;5.33;;;2.60;;
20449;SDS011;10384;51.940;8.432;2023-04-23T11:41:36;4.77;;;2.57;;
20449;SDS011;10384;51.940;8.432;2023-04-23T11:44:03;3.50;;;2.50;;
20449;SDS011;10384;51.940;8.432;2023-04-23T11:46:30;4.77;;;2.47;;
20449;SDS011;10384;51.940;8.432;2023-04-23T11:48:58;3.93;;;2.33;;
20449;SDS011;10384;51.940;8.432;2023-04-23T11:51:27;3.17;;;2.33;;
20449;SDS011;10384;51.940;8.432;2023-04-23T11:53:53;5.80;;;3.20;;
20449;SDS011;10384;51.940;8.432;2023-04-23T11:56:19;4.03;;;2.30;;
20449;SDS011;10384;51.940;8.432;2023-04-23T11:58:45;4.10;;;2.30;;
20449;SDS011;10384;51.940;8.432;2023-04-23T12:01:11;4.00;;;2.37;;
20449;SDS011;10384;51.940;8.432;2023-04-23T12:03:37;4.00;;;2.47;;
20449;SDS011;10384;51.940;8.432;2023-04-23T12:06:04;6.30;;;2.40;;
20449;SDS011;10384;51.940;8.432;2023-04-23T12:08:31;4.23;;;2.13;;
20449;SDS011;10384;51.940;8.432;2023-04-23T12:11:00;3.13;;;2.03;;
20449;SDS011;10384;51.940;8.432;2023-04-23T12:13:27;3.67;;;2.20;;
20449;SDS011;10384;51.940;8.432;2023-04-23T12:15:58;3.07;;;2.17;;
20449;SDS011;10384;51.940;8.432;2023-04-23T12:18:31;4.57;;;2.27;;
20449;SDS011;10384;51.940;8.432;2023-04-23T12:21:06;2.93;;;2.00;;
20449;SDS011;10384;51.940;8.432;2023-04-23T12:23:32;2.87;;;1.97;;
20449;SDS011;10384;51.940;8.432;2023-04-23T12:26:00;3.70;;;2.10;;
20449;SDS011;10384;51.940;8.432;2023-04-23T12:28:27;2.57;;;2.00;;
20449;SDS011;10384;51.940;8.432;2023-04-23T12:30:57;3.20;;;1.90;;
20449;SDS011;10384;51.940;8.432;2023-04-23T12:33:24;4.60;;;2.00;;
20449;SDS011;10384;51.940;8.432;2023-04-23T12:35:53;2.10;;;1.83;;
20449;SDS011;10384;51.940;8.432;2023-04-23T12:40:48;2.60;;;1.63;;
20449;SDS011;10384;51.940;8.432;2023-04-23T12:43:14;3.80;;;1.80;;
20449;SDS011;10384;51.940;8.432;2023-04-23T12:45:40;2.97;;;1.87;;
20449;SDS011;10384;51.940;8.432;2023-04-23T12:48:06;3.57;;;1.60;;
20449;SDS011;10384;51.940;8.432;2023-04-23T12:50:32;3.70;;;2.00;;
20449;SDS011;10384;51.940;8.432;2023-04-23T12:52:58;4.77;;;1.77;;
20449;SDS011;10384;51.940;8.432;2023-04-23T12:55:24;2.30;;;1.80;;
20449;SDS011;10384;51.940;8.432;2023-04-23T12:57:50;4.30;;;1.63;;
20449;SDS011;10384;51.940;8.432;2023-04-23T13:00:16;2.47;;;1.40;;
20449;SDS011;10384;51.940;8.432;2023-04-23T13:02:42;2.53;;;1.70;;
20449;SDS011;10384;51.940;8.432;2023-04-23T13:05:08;2.00;;;1.47;;
20449;SDS011;10384;51.940;8.432;2023-04-23T13:07:34;1.40;;;1.30;;
20449;SDS011;10384;51.940;8.432;2023-04-23T13:10:00;1.87;;;1.30;;
20449;SDS011;10384;51.940;8.432;2023-04-23T13:12:26;3.07;;;1.20;;
20449;SDS011;10384;51.940;8.432;2023-04-23T13:14:52;2.93;;;1.70;;
20449;SDS011;10384;51.940;8.432;2023-04-23T13:17:18;3.10;;;1.20;;
20449;SDS011;10384;51.940;8.432;2023-04-23T13:19:45;1.60;;;1.00;;
20449;SDS011;10384;51.940;8.432;2023-04-23T13:22:11;1.10;;;0.90;;
20449;SDS011;10384;51.940;8.432;2023-04-23T13:24:37;2.00;;;1.10;;
20449;SDS011;10384;51.940;8.432;2023-04-23T13:27:03;1.87;;;1.07;;
20449;SDS011;10384;51.940;8.432;2023-04-23T13:29:29;3.63;;;1.00;;
20449;SDS011;10384;51.940;8.432;2023-04-23T13:31:55;3.60;;;1.40;;
20449;SDS011;10384;51.940;8.432;2023-04-23T13:34:22;3.07;;;1.17;;
20449;SDS011;10384;51.940;8.432;2023-04-23T13:36:48;2.73;;;1.00;;
20449;SDS011;10384;51.940;8.432;2023-04-23T13:39:14;1.40;;;1.00;;
20449;SDS011;10384;51.940;8.432;2023-04-23T13:41:42;2.30;;;0.93;;
20449;SDS011;10384;51.940;8.432;2023-04-23T13:44:08;3.97;;;1.10;;
20449;SDS011;10384;51.940;8.432;2023-04-23T13:46:34;1.50;;;1.30;;
20449;SDS011;10384;51.940;8.432;2023-04-23T13:49:00;3.27;;;1.20;;
20449;SDS011;10384;51.940;8.432;2023-04-23T13:51:26;2.77;;;1.30;;
20449;SDS011;10384;51.940;8.432;2023-04-23T13:53:52;1.80;;;1.03;;
20449;SDS011;10384;51.940;8.432;2023-04-23T13:56:18;1.90;;;1.10;;
20449;SDS011;10384;51.940;8.432;2023-04-23T13:58:44;1.20;;;1.10;;
20449;SDS011;10384;51.940;8.432;2023-04-23T14:01:12;1.47;;;1.00;;
20449;SDS011;10384;51.940;8.432;2023-04-23T14:03:39;2.17;;;1.40;;
20449;SDS011;10384;51.940;8.432;2023-04-23T14:06:06;1.43;;;1.30;;
20449;SDS011;10384;51.940;8.432;2023-04-23T14:08:32;2.87;;;1.20;;
20449;SDS011;10384;51.940;8.432;2023-04-23T14:11:00;1.20;;;1.10;;
20449;SDS011;10384;51.940;8.432;2023-04-23T14:13:27;1.53;;;1.07;;
20449;SDS011;10384;51.940;8.432;2023-04-23T14:15:53;4.63;;;1.43;;
20449;SDS011;10384;51.940;8.432;2023-04-23T14:18:19;1.83;;;1.07;;
20449;SDS011;10384;51.940;8.432;2023-04-23T14:20:45;1.23;;;1.00;;
20449;SDS011;10384;51.940;8.432;2023-04-23T14:25:55;1.40;;;1.30;;
20449;SDS011;10384;51.940;8.432;2023-04-23T14:28:26;1.53;;;1.20;;
20449;SDS011;10384;51.940;8.432;2023-04-23T14:30:53;2.77;;;1.60;;
20449;SDS011;10384;51.940;8.432;2023-04-23T14:33:20;1.47;;;1.23;;
20449;SDS011;10384;51.940;8.432;2023-04-23T14:35:46;2.43;;;1.33;;
20449;SDS011;10384;51.940;8.432;2023-04-23T14:38:12;1.33;;;1.20;;
20449;SDS011;10384;51.940;8.432;2023-04-23T14:40:38;1.70;;;1.07;;
20449;SDS011;10384;51.940;8.432;2023-04-23T14:43:04;3.27;;;1.93;;
20449;SDS011;10384;51.940;8.432;2023-04-23T14:45:30;2.70;;;1.37;;
20449;SDS011;10384;51.940;8.432;2023-04-23T14:47:57;1.47;;;1.10;;